Time;durP1;ratioP1;P1;durP2;ratioP2;P2;SDS_P1;SDS_P2;PMS_P1;PMS_P2;Temp;Humidity;BMP_temperature;BMP_pressure;BME280_temperature;BME280_humidity;BME280_pressure;Samples;Min_cycle;Max_cycle;Signal;HPM_P1;HPM_P2
2022/08/13 00:00:59;;;;;;;5.40;4.30;;;;;;;;;;5017858;28;20049;-83
2022/08/13 00:03:27;;;;;;;5.65;4.60;;;;;;;;;;5028735;28;20401;-83
2022/08/13 00:05:54;;;;;;;5.43;4.20;;;;;;;;;;5029464;28;20053;-83
2022/08/13 00:08:23;;;;;;;5.13;4.25;;;;;;;;;;5030334;28;20049;-83
2022/08/13 00:10:50;;;;;;;5.65;4.40;;;;;;;;;;5026997;28;20048;-83
2022/08/13 00:13:18;;;;;;;7.13;4.65;;;;;;;;;;5026839;28;20057;-83
2022/08/13 00:15:45;;;;;;;9.07;5.97;;;;;;;;;;5029297;28;20080;-82
2022/08/13 00:18:13;;;;;;;6.45;4.63;;;;;;;;;;5010061;28;20041;-83
2022/08/13 00:20:42;;;;;;;5.22;4.53;;;;;;;;;;5025614;28;20410;-83
2022/08/13 00:23:09;;;;;;;7.53;4.85;;;;;;;;;;5026995;28;20438;-82
2022/08/13 00:25:36;;;;;;;4.80;4.30;;;;;;;;;;5028576;28;20068;-83
2022/08/13 00:28:04;;;;;;;5.88;4.90;;;;;;;;;;5029085;28;20096;-82
2022/08/13 00:30:31;;;;;;;8.68;5.05;;;;;;;;;;5028077;28;20114;-83
2022/08/13 00:32:59;;;;;;;6.22;4.65;;;;;;;;;;5027982;28;20045;-83
2022/08/13 00:35:25;;;;;;;6.05;4.85;;;;;;;;;;5028656;28;20038;-82
2022/08/13 00:37:52;;;;;;;6.78;5.00;;;;;;;;;;5010822;28;20055;-83
2022/08/13 00:40:18;;;;;;;6.32;5.35;;;;;;;;;;5026962;28;20057;-83
2022/08/13 00:42:44;;;;;;;6.25;5.43;;;;;;;;;;5027538;28;20065;-83
2022/08/13 00:45:10;;;;;;;5.97;5.38;;;;;;;;;;5026652;28;20108;-83
2022/08/13 00:50:21;;;;;;;5.85;5.18;;;;;;;;;;5025896;28;20081;-83
2022/08/13 00:52:49;;;;;;;6.40;5.35;;;;;;;;;;5027920;28;20033;-83
2022/08/13 00:55:17;;;;;;;5.95;5.35;;;;;;;;;;5028239;28;20045;-82
2022/08/13 00:57:45;;;;;;;7.45;5.13;;;;;;;;;;5027695;28;20089;-82
2022/08/13 01:00:15;;;;;;;6.18;5.47;;;;;;;;;;5024966;28;21289;-83
2022/08/13 01:02:42;;;;;;;6.95;6.00;;;;;;;;;;5028510;28;20051;-83
2022/08/13 01:05:09;;;;;;;8.65;6.13;;;;;;;;;;5027375;28;20081;-83
2022/08/13 01:07:36;;;;;;;7.72;5.70;;;;;;;;;;5033161;28;20041;-83
2022/08/13 01:10:03;;;;;;;8.50;6.38;;;;;;;;;;5033197;28;20407;-83
2022/08/13 01:12:29;;;;;;;9.02;6.20;;;;;;;;;;5029409;28;20418;-82
2022/08/13 01:14:57;;;;;;;7.70;5.95;;;;;;;;;;5030878;28;20095;-83
2022/08/13 01:17:24;;;;;;;9.07;6.10;;;;;;;;;;5032609;28;20590;-83
2022/08/13 01:19:50;;;;;;;6.20;5.60;;;;;;;;;;5032692;28;20115;-83
2022/08/13 01:22:16;;;;;;;6.28;5.68;;;;;;;;;;5029223;28;20137;-82
2022/08/13 01:24:43;;;;;;;7.38;5.97;;;;;;;;;;5031714;28;20053;-82
2022/08/13 01:27:10;;;;;;;7.00;5.78;;;;;;;;;;5031174;28;20099;-82
2022/08/13 01:29:36;;;;;;;7.25;6.00;;;;;;;;;;5030351;28;20053;-83
2022/08/13 01:32:02;;;;;;;7.85;5.88;;;;;;;;;;5031375;28;20042;-83
2022/08/13 01:34:31;;;;;;;7.60;5.68;;;;;;;;;;5031328;28;20081;-83
2022/08/13 01:36:57;;;;;;;8.25;6.22;;;;;;;;;;5031086;28;20076;-82
2022/08/13 01:39:23;;;;;;;12.93;6.55;;;;;;;;;;5031429;28;20045;-83
2022/08/13 01:41:49;;;;;;;6.55;5.47;;;;;;;;;;5031269;28;20052;-82
2022/08/13 01:44:16;;;;;;;6.65;5.78;;;;;;;;;;5031038;28;20049;-82
2022/08/13 01:52:12;;;;;;;8.00;6.00;;;;;;;;;;5029396;28;20407;-83
2022/08/13 01:54:39;;;;;;;10.02;5.82;;;;;;;;;;5031418;28;20053;-83
2022/08/13 01:57:06;;;;;;;8.10;6.55;;;;;;;;;;5029139;28;20041;-82
2022/08/13 01:59:34;;;;;;;6.68;5.70;;;;;;;;;;5029668;28;20107;-83
2022/08/13 02:02:02;;;;;;;9.75;6.47;;;;;;;;;;5030748;28;20128;-83
2022/08/13 02:04:28;;;;;;;7.57;6.65;;;;;;;;;;5031691;28;20088;-83
2022/08/13 02:06:54;;;;;;;7.50;6.80;;;;;;;;;;5030787;28;20061;-83
2022/08/13 02:09:23;;;;;;;9.30;7.10;;;;;;;;;;5028987;28;20469;-82
2022/08/13 02:11:50;;;;;;;8.20;6.85;;;;;;;;;;5030735;28;20476;-82
2022/08/13 02:14:16;;;;;;;9.30;7.13;;;;;;;;;;5029294;28;20093;-82
2022/08/13 02:16:42;;;;;;;8.60;7.35;;;;;;;;;;5030858;28;20088;-82
2022/08/13 02:19:09;;;;;;;9.23;7.45;;;;;;;;;;5027805;28;20041;-82
2022/08/13 02:21:36;;;;;;;7.85;6.93;;;;;;;;;;5013932;28;20042;-82
2022/08/13 02:24:03;;;;;;;10.88;7.50;;;;;;;;;;5028458;28;20057;-82
2022/08/13 02:26:30;;;;;;;8.40;7.43;;;;;;;;;;5029701;28;20045;-82
2022/08/13 02:28:57;;;;;;;8.43;7.60;;;;;;;;;;5024706;28;20090;-82
2022/08/13 02:31:23;;;;;;;9.80;7.50;;;;;;;;;;5030819;28;20175;-82
2022/08/13 02:33:52;;;;;;;9.23;7.97;;;;;;;;;;5012852;28;20045;-83
2022/08/13 02:36:22;;;;;;;11.13;8.15;;;;;;;;;;5031223;28;20045;-83
2022/08/13 02:38:58;;;;;;;8.93;7.95;;;;;;;;;;5027923;28;20497;-82
2022/08/13 02:41:40;;;;;;;;;;;;;;;;;;5031446;28;20057;-82
2022/08/13 02:44:08;;;;;;;10.13;7.93;;;;;;;;;;5027963;28;19921;-82
2022/08/13 02:46:34;;;;;;;8.60;7.75;;;;;;;;;;5030166;28;20107;-83
2022/08/13 02:49:02;;;;;;;9.07;8.18;;;;;;;;;;5027726;28;20040;-82
2022/08/13 02:51:28;;;;;;;10.80;7.97;;;;;;;;;;5028543;28;20056;-82
2022/08/13 02:53:54;;;;;;;10.07;8.52;;;;;;;;;;5030060;28;20041;-83
2022/08/13 02:56:22;;;;;;;10.68;8.25;;;;;;;;;;5028032;28;20052;-82
2022/08/13 02:58:48;;;;;;;11.60;8.25;;;;;;;;;;5026475;28;20045;-82
2022/08/13 03:01:14;;;;;;;9.38;8.13;;;;;;;;;;5028243;28;20053;-82
2022/08/13 03:03:40;;;;;;;10.30;8.52;;;;;;;;;;5030913;28;20041;-82
2022/08/13 03:06:10;;;;;;;10.35;8.73;;;;;;;;;;5030478;28;20050;-82
2022/08/13 03:08:36;;;;;;;9.15;8.25;;;;;;;;;;5026303;28;20045;-82
2022/08/13 03:11:03;;;;;;;9.65;8.60;;;;;;;;;;5012365;28;20076;-82
2022/08/13 03:13:34;;;;;;;9.02;7.93;;;;;;;;;;5028733;28;20053;-82
2022/08/13 03:16:01;;;;;;;9.20;8.02;;;;;;;;;;5024854;28;20162;-82
2022/08/13 03:18:28;;;;;;;10.35;8.00;;;;;;;;;;5026185;28;20067;-82
2022/08/13 03:20:54;;;;;;;9.82;8.45;;;;;;;;;;5027079;28;20049;-82
2022/08/13 03:23:22;;;;;;;10.13;8.25;;;;;;;;;;5026213;28;20044;-82
2022/08/13 03:25:49;;;;;;;9.27;8.32;;;;;;;;;;5030478;28;20046;-82
2022/08/13 03:28:15;;;;;;;11.05;9.35;;;;;;;;;;5020053;28;20052;-82
2022/08/13 03:30:41;;;;;;;9.40;8.50;;;;;;;;;;5026227;28;20049;-82
2022/08/13 03:33:13;;;;;;;9.73;8.40;;;;;;;;;;5029966;28;20049;-82
2022/08/13 03:35:39;;;;;;;9.88;8.27;;;;;;;;;;5031300;28;20049;-82
2022/08/13 03:38:06;;;;;;;10.50;8.70;;;;;;;;;;5028402;28;20041;-82
2022/08/13 03:43:18;;;;;;;9.35;8.32;;;;;;;;;;5029534;28;20046;-82
2022/08/13 03:45:44;;;;;;;9.65;8.55;;;;;;;;;;5029793;28;20081;-82
2022/08/13 03:48:13;;;;;;;9.95;8.63;;;;;;;;;;5026599;28;20060;-82
2022/08/13 03:50:40;;;;;;;9.55;8.23;;;;;;;;;;5029270;28;20045;-82
2022/08/13 03:53:07;;;;;;;11.20;8.43;;;;;;;;;;5025792;28;20060;-82
2022/08/13 03:55:34;;;;;;;10.55;8.23;;;;;;;;;;5025799;28;20041;-82
2022/08/13 03:58:00;;;;;;;13.90;9.45;;;;;;;;;;5025774;28;20132;-82
2022/08/13 04:00:28;;;;;;;9.57;8.40;;;;;;;;;;5022594;28;20489;-82
2022/08/13 04:02:55;;;;;;;10.10;8.82;;;;;;;;;;5023542;28;20073;-82
2022/08/13 04:05:22;;;;;;;9.57;7.93;;;;;;;;;;5025131;28;20657;-82
2022/08/13 04:07:50;;;;;;;9.50;8.27;;;;;;;;;;5026384;28;20135;-82
2022/08/13 04:10:17;;;;;;;10.05;8.52;;;;;;;;;;5027156;28;20091;-82
2022/08/13 04:12:43;;;;;;;10.18;8.90;;;;;;;;;;5025179;28;20062;-82
2022/08/13 04:15:09;;;;;;;14.73;8.73;;;;;;;;;;5025979;28;20049;-82
2022/08/13 04:17:40;;;;;;;9.68;7.80;;;;;;;;;;5025819;28;20256;-82
2022/08/13 04:20:10;;;;;;;8.55;7.75;;;;;;;;;;5024623;28;20568;-82
2022/08/13 04:22:37;;;;;;;11.07;8.60;;;;;;;;;;5023322;28;20413;-82
2022/08/13 04:25:07;;;;;;;9.75;7.88;;;;;;;;;;5026720;28;20045;-82
2022/08/13 04:27:34;;;;;;;11.05;7.90;;;;;;;;;;5025231;28;20135;-82
2022/08/13 04:30:01;;;;;;;13.40;8.52;;;;;;;;;;5022588;28;20405;-82
2022/08/13 04:32:27;;;;;;;9.73;8.73;;;;;;;;;;5024214;28;20049;-82
2022/08/13 04:34:54;;;;;;;9.95;7.93;;;;;;;;;;5024045;28;20049;-82
2022/08/13 04:37:22;;;;;;;9.73;8.07;;;;;;;;;;5026460;28;20390;-82
2022/08/13 04:39:53;;;;;;;8.63;7.72;;;;;;;;;;5026738;28;20401;-82
2022/08/13 04:42:19;;;;;;;9.30;7.57;;;;;;;;;;5028964;28;20168;-82
2022/08/13 04:44:47;;;;;;;8.63;7.43;;;;;;;;;;5029796;28;20073;-82
2022/08/13 04:47:13;;;;;;;9.82;7.07;;;;;;;;;;5026311;28;20508;-82
2022/08/13 04:49:39;;;;;;;8.70;7.32;;;;;;;;;;5025918;28;20046;-82
2022/08/13 04:52:06;;;;;;;8.75;7.82;;;;;;;;;;5025122;28;20487;-82
2022/08/13 04:54:32;;;;;;;8.23;7.43;;;;;;;;;;5028190;28;20336;-82
2022/08/13 04:56:58;;;;;;;7.70;6.90;;;;;;;;;;5026129;28;20045;-82
2022/08/13 04:59:24;;;;;;;9.05;7.25;;;;;;;;;;5022874;28;20134;-82
2022/08/13 05:01:50;;;;;;;8.48;7.30;;;;;;;;;;5009318;28;20041;-82
2022/08/13 05:04:17;;;;;;;9.52;7.60;;;;;;;;;;5026294;28;20053;-82
2022/08/13 05:06:43;;;;;;;9.38;7.45;;;;;;;;;;5025782;28;20046;-82
2022/08/13 05:09:09;;;;;;;8.50;7.40;;;;;;;;;;5023058;28;20084;-82
2022/08/13 05:11:35;;;;;;;9.77;7.32;;;;;;;;;;5024745;28;20069;-82
2022/08/13 05:14:01;;;;;;;8.55;7.28;;;;;;;;;;5023187;28;20096;-82
2022/08/13 05:16:27;;;;;;;10.13;7.82;;;;;;;;;;5027171;28;20069;-82
2022/08/13 05:18:54;;;;;;;10.13;7.13;;;;;;;;;;5024967;28;20042;-82
2022/08/13 05:21:23;;;;;;;8.10;7.30;;;;;;;;;;5026985;28;20125;-82
2022/08/13 05:23:53;;;;;;;9.13;7.47;;;;;;;;;;5020308;28;20045;-82
2022/08/13 05:26:23;;;;;;;11.13;7.40;;;;;;;;;;5025657;28;20049;-82
2022/08/13 05:28:50;;;;;;;9.43;7.28;;;;;;;;;;5025494;28;20042;-82
2022/08/13 05:31:19;;;;;;;9.07;6.88;;;;;;;;;;5026744;28;20053;-81
2022/08/13 05:33:45;;;;;;;8.57;6.93;;;;;;;;;;5027904;28;20087;-82
2022/08/13 05:36:13;;;;;;;8.82;6.70;;;;;;;;;;5027526;28;20048;-82
2022/08/13 05:38:39;;;;;;;7.68;6.57;;;;;;;;;;5026717;28;20551;-81
2022/08/13 05:41:15;;;;;;;10.35;6.93;;;;;;;;;;5027185;28;20049;-81
2022/08/13 05:43:41;;;;;;;9.25;6.82;;;;;;;;;;5026694;28;20501;-82
2022/08/13 05:46:08;;;;;;;7.80;6.97;;;;;;;;;;5028103;28;20466;-81
2022/08/13 05:48:38;;;;;;;8.25;7.45;;;;;;;;;;5025319;28;20056;-81
2022/08/13 05:51:07;;;;;;;8.43;7.05;;;;;;;;;;5027825;28;20493;-82
2022/08/13 05:53:33;;;;;;;9.95;7.55;;;;;;;;;;5028960;28;20061;-82
2022/08/13 05:55:59;;;;;;;8.07;7.28;;;;;;;;;;5030939;28;20049;-82
2022/08/13 05:58:26;;;;;;;8.18;7.20;;;;;;;;;;5030590;28;20083;-82
2022/08/13 06:03:37;;;;;;;7.70;6.80;;;;;;;;;;5029168;28;20049;-82
2022/08/13 06:06:07;;;;;;;8.63;6.75;;;;;;;;;;5030011;28;20050;-82
2022/08/13 06:08:38;;;;;;;8.45;6.60;;;;;;;;;;5026731;28;20084;-82
2022/08/13 06:11:06;;;;;;;8.07;6.65;;;;;;;;;;5026653;28;20171;-82
2022/08/13 06:13:33;;;;;;;7.65;6.85;;;;;;;;;;5030794;28;20045;-88
2022/08/13 06:16:00;;;;;;;7.43;6.72;;;;;;;;;;5029522;28;20046;-81
2022/08/13 06:18:36;;;;;;;7.30;6.50;;;;;;;;;;5019062;28;20042;-81
2022/08/13 06:21:06;;;;;;;7.68;6.65;;;;;;;;;;5005254;28;20060;-82
2022/08/13 06:23:35;;;;;;;8.48;6.10;;;;;;;;;;5025090;28;20363;-82
2022/08/13 06:26:02;;;;;;;9.48;6.13;;;;;;;;;;5027770;28;20137;-82
2022/08/13 06:28:30;;;;;;;8.45;6.22;;;;;;;;;;5026467;28;20497;-82
2022/08/13 06:30:58;;;;;;;10.13;6.28;;;;;;;;;;5027552;28;20500;-83
2022/08/13 06:33:25;;;;;;;10.63;6.22;;;;;;;;;;5010764;28;20041;-82
2022/08/13 06:35:52;;;;;;;8.25;6.25;;;;;;;;;;5023464;28;20113;-82
2022/08/13 06:38:20;;;;;;;9.30;6.28;;;;;;;;;;5027223;28;20049;-83
2022/08/13 06:40:47;;;;;;;7.25;6.55;;;;;;;;;;5027093;28;20442;-82
2022/08/13 06:43:19;;;;;;;7.50;6.20;;;;;;;;;;5027084;28;20091;-83
2022/08/13 06:45:46;;;;;;;7.35;5.72;;;;;;;;;;5028139;28;20042;-83
2022/08/13 06:48:12;;;;;;;6.90;5.60;;;;;;;;;;5027326;28;20037;-82
2022/08/13 06:50:38;;;;;;;8.23;5.60;;;;;;;;;;5027180;28;20041;-83
2022/08/13 06:53:05;;;;;;;5.90;5.30;;;;;;;;;;5027331;28;20510;-83
2022/08/13 06:55:36;;;;;;;6.18;5.57;;;;;;;;;;5031022;28;20426;-83
2022/08/13 06:58:08;;;;;;;6.18;4.85;;;;;;;;;;5029362;28;20102;-82
2022/08/13 07:00:35;;;;;;;7.78;4.90;;;;;;;;;;5030900;28;20296;-83
2022/08/13 07:03:02;;;;;;;6.50;5.00;;;;;;;;;;5031244;28;20415;-83
2022/08/13 07:05:32;;;;;;;5.50;5.00;;;;;;;;;;5030019;28;20042;-83
2022/08/13 07:07:59;;;;;;;6.13;4.93;;;;;;;;;;5028175;28;20037;-83
2022/08/13 07:10:25;;;;;;;7.68;5.03;;;;;;;;;;5029410;28;20441;-83
2022/08/13 07:12:52;;;;;;;5.38;4.10;;;;;;;;;;5027265;28;20050;-83
2022/08/13 07:15:18;;;;;;;4.97;4.05;;;;;;;;;;5031143;28;20045;-83
2022/08/13 07:17:45;;;;;;;5.78;4.30;;;;;;;;;;5027298;28;20058;-83
2022/08/13 07:20:11;;;;;;;5.70;4.50;;;;;;;;;;5029086;28;20060;-83
2022/08/13 07:22:38;;;;;;;5.40;3.90;;;;;;;;;;5026499;28;20037;-83
2022/08/13 07:25:04;;;;;;;5.88;3.95;;;;;;;;;;5028831;28;20072;-82
2022/08/13 07:27:31;;;;;;;5.95;3.85;;;;;;;;;;5027854;28;20063;-83
2022/08/13 07:29:59;;;;;;;8.20;4.40;;;;;;;;;;5029502;28;20651;-83
2022/08/13 07:32:27;;;;;;;5.47;3.83;;;;;;;;;;5029023;28;20050;-84
2022/08/13 07:34:56;;;;;;;5.68;3.83;;;;;;;;;;5029251;28;20046;-83
2022/08/13 07:37:22;;;;;;;7.32;4.05;;;;;;;;;;5026672;28;20045;-89
2022/08/13 07:39:48;;;;;;;5.55;3.83;;;;;;;;;;5026895;28;20490;-83
2022/08/13 07:42:19;;;;;;;5.68;3.92;;;;;;;;;;5030616;28;20379;-88
2022/08/13 07:44:50;;;;;;;5.82;4.05;;;;;;;;;;5029161;28;20072;-83
2022/08/13 07:47:17;;;;;;;6.03;3.60;;;;;;;;;;5029299;28;20049;-83
2022/08/13 07:49:44;;;;;;;5.47;3.80;;;;;;;;;;5028466;28;20410;-83
2022/08/13 07:52:10;;;;;;;3.83;3.28;;;;;;;;;;5041545;28;20049;-83
2022/08/13 07:54:38;;;;;;;5.85;3.58;;;;;;;;;;5020543;28;20045;-83
2022/08/13 07:57:04;;;;;;;4.22;3.28;;;;;;;;;;5046624;28;20397;-82
2022/08/13 07:59:31;;;;;;;4.53;3.35;;;;;;;;;;5044931;28;20096;-82
2022/08/13 08:01:57;;;;;;;3.50;3.20;;;;;;;;;;5028625;28;20466;-83
2022/08/13 08:04:24;;;;;;;4.68;3.70;;;;;;;;;;5035880;28;20063;-83
2022/08/13 08:06:50;;;;;;;5.57;3.50;;;;;;;;;;5048895;28;20158;-83
2022/08/13 08:09:20;;;;;;;5.95;3.35;;;;;;;;;;5048399;28;20106;-83
2022/08/13 08:14:32;;;;;;;9.77;3.40;;;;;;;;;;5034552;28;20045;-83
2022/08/13 08:17:02;;;;;;;3.30;2.90;;;;;;;;;;5035861;28;20036;-86
2022/08/13 08:19:31;;;;;;;3.10;2.60;;;;;;;;;;5029164;28;20041;-82
2022/08/13 08:21:58;;;;;;;3.55;2.72;;;;;;;;;;5023239;28;20045;-82
2022/08/13 08:24:25;;;;;;;7.05;2.83;;;;;;;;;;5020569;28;20099;-82
2022/08/13 08:26:53;;;;;;;7.72;3.00;;;;;;;;;;5035086;28;20123;-82
2022/08/13 08:29:20;;;;;;;5.80;3.40;;;;;;;;;;5028141;28;20049;-82
2022/08/13 08:31:47;;;;;;;4.18;2.75;;;;;;;;;;5028582;28;20077;-82
2022/08/13 08:34:13;;;;;;;7.13;2.80;;;;;;;;;;5027455;28;20064;-84
2022/08/13 08:36:40;;;;;;;4.38;2.60;;;;;;;;;;5028278;28;20479;-82
2022/08/13 08:44:38;;;;;;;3.05;2.72;;;;;;;;;;5011695;28;20046;-82
2022/08/13 08:47:05;;;;;;;4.85;2.38;;;;;;;;;;5005696;28;20050;-82
2022/08/13 08:49:31;;;;;;;5.32;2.60;;;;;;;;;;5040538;28;20042;-82
2022/08/13 08:51:58;;;;;;;3.65;2.60;;;;;;;;;;5019543;28;20505;-82
2022/08/13 08:54:25;;;;;;;3.53;2.50;;;;;;;;;;5026611;28;20444;-82
2022/08/13 08:56:55;;;;;;;6.10;2.67;;;;;;;;;;5026923;28;20127;-86
2022/08/13 08:59:28;;;;;;;3.67;2.53;;;;;;;;;;5027819;28;20418;-82
2022/08/13 09:01:55;;;;;;;5.07;2.67;;;;;;;;;;5034986;28;20046;-83
2022/08/13 09:04:22;;;;;;;5.13;2.30;;;;;;;;;;5031104;28;20060;-82
2022/08/13 09:06:52;;;;;;;2.80;2.47;;;;;;;;;;5029331;28;20041;-82
2022/08/13 09:09:19;;;;;;;3.28;2.85;;;;;;;;;;5028260;28;20052;-82
2022/08/13 09:11:45;;;;;;;3.55;2.60;;;;;;;;;;5026001;28;20043;-82
2022/08/13 09:14:12;;;;;;;3.55;2.33;;;;;;;;;;5026964;28;20088;-83
2022/08/13 09:16:38;;;;;;;4.10;2.38;;;;;;;;;;5025558;28;20048;-85
2022/08/13 09:19:08;;;;;;;3.30;2.25;;;;;;;;;;5027213;28;20050;-84
2022/08/13 09:21:45;;;;;;;2.72;2.40;;;;;;;;;;5041284;28;20041;-83
2022/08/13 09:24:14;;;;;;;3.60;2.30;;;;;;;;;;5029124;28;20041;-82
2022/08/13 09:26:43;;;;;;;3.13;2.50;;;;;;;;;;5033553;28;20501;-82
2022/08/13 09:29:11;;;;;;;3.67;2.63;;;;;;;;;;5045620;28;20053;-83
2022/08/13 09:31:37;;;;;;;4.13;2.40;;;;;;;;;;5031681;28;20150;-83
2022/08/13 09:34:03;;;;;;;3.97;2.50;;;;;;;;;;5032680;28;20050;-83
2022/08/13 09:36:31;;;;;;;3.80;2.42;;;;;;;;;;5034889;28;20091;-83
2022/08/13 09:38:57;;;;;;;3.30;2.53;;;;;;;;;;5049712;28;20493;-83
2022/08/13 09:41:50;;;;;;;3.10;2.30;;;;;;;;;;5031746;28;20128;-82
2022/08/13 09:44:17;;;;;;;3.67;2.50;;;;;;;;;;5031217;28;20049;-82
2022/08/13 09:46:43;;;;;;;3.20;2.20;;;;;;;;;;5030697;28;20043;-82
2022/08/13 09:49:11;;;;;;;5.20;2.58;;;;;;;;;;5030869;28;20041;-82
2022/08/13 09:51:37;;;;;;;5.43;2.40;;;;;;;;;;5014469;28;20045;-82
2022/08/13 09:54:05;;;;;;;4.07;2.40;;;;;;;;;;5031752;28;20402;-83
2022/08/13 09:56:37;;;;;;;4.65;2.30;;;;;;;;;;5037524;28;20083;-85
2022/08/13 09:59:03;;;;;;;2.67;2.30;;;;;;;;;;5039064;28;20053;-84
2022/08/13 10:01:29;;;;;;;3.28;2.25;;;;;;;;;;5045939;28;20404;-84
2022/08/13 10:03:55;;;;;;;6.68;2.55;;;;;;;;;;5030575;28;20494;-84
2022/08/13 10:06:21;;;;;;;2.53;2.33;;;;;;;;;;5032206;28;20044;-85
2022/08/13 10:08:48;;;;;;;3.30;2.42;;;;;;;;;;5051261;28;20095;-84
2022/08/13 10:11:15;;;;;;;4.45;2.40;;;;;;;;;;5029552;28;20045;-85
2022/08/13 10:13:42;;;;;;;3.85;2.20;;;;;;;;;;5030376;28;20063;-83
2022/08/13 10:16:08;;;;;;;6.80;2.55;;;;;;;;;;5030437;28;20497;-84
2022/08/13 10:18:34;;;;;;;3.45;2.22;;;;;;;;;;5013828;28;20149;-84
2022/08/13 10:21:00;;;;;;;2.70;2.35;;;;;;;;;;5030914;28;20053;-84
2022/08/13 10:23:26;;;;;;;3.38;2.40;;;;;;;;;;5032246;28;20045;-84
2022/08/13 10:25:52;;;;;;;5.00;2.80;;;;;;;;;;5025767;28;20049;-84
2022/08/13 10:28:18;;;;;;;5.40;2.40;;;;;;;;;;5029718;28;20402;-84
2022/08/13 10:30:44;;;;;;;5.10;2.70;;;;;;;;;;5030044;28;20045;-83
2022/08/13 10:33:12;;;;;;;2.55;2.20;;;;;;;;;;5030407;28;20076;-84
2022/08/13 10:35:38;;;;;;;3.13;2.30;;;;;;;;;;5031161;28;20395;-84
2022/08/13 10:38:07;;;;;;;3.65;2.40;;;;;;;;;;5031402;28;20045;-84
2022/08/13 10:40:33;;;;;;;3.70;2.40;;;;;;;;;;5030834;28;20110;-84
2022/08/13 10:43:00;;;;;;;3.83;2.53;;;;;;;;;;5030960;28;20125;-84
2022/08/13 10:45:30;;;;;;;4.65;2.30;;;;;;;;;;5021902;28;20479;-84
2022/08/13 10:47:56;;;;;;;4.07;2.40;;;;;;;;;;5029562;28;20045;-84
2022/08/13 10:50:29;;;;;;;3.45;2.40;;;;;;;;;;5030754;28;20048;-84
2022/08/13 10:52:56;;;;;;;2.55;2.10;;;;;;;;;;5029053;28;20146;-85
2022/08/13 10:55:22;;;;;;;3.25;2.53;;;;;;;;;;5029433;28;20064;-88
2022/08/13 10:57:48;;;;;;;4.68;2.40;;;;;;;;;;5030475;28;20046;-84
2022/08/13 11:00:19;;;;;;;3.22;2.40;;;;;;;;;;5030161;28;20045;-84
2022/08/13 11:02:55;;;;;;;2.80;2.30;;;;;;;;;;5030521;28;20061;-85
2022/08/13 11:05:22;;;;;;;;;;;;;;;;;;5030604;28;20090;-85
2022/08/13 11:07:49;;;;;;;2.53;2.33;;;;;;;;;;5030088;28;19920;-86
2022/08/13 11:10:15;;;;;;;3.25;2.40;;;;;;;;;;5029376;28;20141;-85
2022/08/13 11:12:50;;;;;;;3.47;2.40;;;;;;;;;;5025994;28;20540;-85
2022/08/13 11:15:16;;;;;;;3.72;2.30;;;;;;;;;;5011080;28;20069;-85
2022/08/13 11:17:47;;;;;;;3.45;2.40;;;;;;;;;;5029498;28;20119;-86
2022/08/13 11:20:19;;;;;;;2.95;2.40;;;;;;;;;;5029526;28;20450;-86
2022/08/13 11:22:45;;;;;;;3.15;2.30;;;;;;;;;;5030370;28;20057;-86
2022/08/13 11:25:11;;;;;;;3.30;2.53;;;;;;;;;;5036132;28;20045;-86
2022/08/13 11:27:37;;;;;;;2.78;2.20;;;;;;;;;;5029463;28;20482;-86
2022/08/13 11:30:04;;;;;;;4.65;2.20;;;;;;;;;;5029614;28;20536;-86
2022/08/13 11:32:30;;;;;;;2.83;2.53;;;;;;;;;;5012900;28;20037;-86
2022/08/13 11:34:57;;;;;;;3.90;2.30;;;;;;;;;;5008154;28;20054;-86
2022/08/13 11:37:23;;;;;;;5.90;2.75;;;;;;;;;;5029396;28;20073;-86
2022/08/13 11:39:49;;;;;;;3.50;2.28;;;;;;;;;;5017420;28;20431;-86
2022/08/13 11:42:15;;;;;;;4.07;2.75;;;;;;;;;;5030367;28;20073;-86
2022/08/13 11:44:41;;;;;;;3.10;2.33;;;;;;;;;;5044221;28;20378;-86
2022/08/13 11:47:07;;;;;;;2.80;2.42;;;;;;;;;;5050009;28;20045;-85
2022/08/13 11:49:33;;;;;;;3.15;2.50;;;;;;;;;;5050015;28;20091;-86
2022/08/13 11:51:59;;;;;;;3.60;2.40;;;;;;;;;;5029296;28;20038;-86
2022/08/13 11:54:25;;;;;;;3.38;2.25;;;;;;;;;;5011479;28;20053;-86
2022/08/13 11:56:51;;;;;;;3.47;2.50;;;;;;;;;;5029597;28;20049;-86
2022/08/13 11:59:18;;;;;;;2.60;2.40;;;;;;;;;;5011732;28;20045;-86
2022/08/13 12:01:44;;;;;;;5.28;2.60;;;;;;;;;;5028700;28;20485;-85
2022/08/13 12:04:13;;;;;;;3.72;2.53;;;;;;;;;;5038153;28;20529;-85
2022/08/13 12:06:42;;;;;;;3.15;2.50;;;;;;;;;;5028232;28;20533;-85
2022/08/13 12:09:08;;;;;;;3.60;2.47;;;;;;;;;;5027836;28;20524;-85
2022/08/13 12:11:35;;;;;;;3.88;2.50;;;;;;;;;;5027859;28;20144;-85
2022/08/13 12:14:01;;;;;;;4.53;2.45;;;;;;;;;;5027115;28;20054;-85
2022/08/13 12:16:27;;;;;;;2.78;2.20;;;;;;;;;;5028635;28;20045;-85
2022/08/13 12:18:53;;;;;;;3.65;2.40;;;;;;;;;;5029965;28;20045;-85
2022/08/13 12:21:19;;;;;;;2.75;2.17;;;;;;;;;;5026879;28;20101;-85
2022/08/13 12:23:45;;;;;;;4.00;2.58;;;;;;;;;;5029150;28;20041;-85
2022/08/13 12:26:11;;;;;;;3.20;2.63;;;;;;;;;;5028262;28;20060;-85
2022/08/13 12:28:37;;;;;;;2.78;2.40;;;;;;;;;;5029680;28;20409;-85
2022/08/13 12:31:05;;;;;;;4.63;2.33;;;;;;;;;;5029600;28;20432;-84
2022/08/13 12:33:31;;;;;;;3.60;2.40;;;;;;;;;;5028364;28;20504;-84
2022/08/13 12:36:00;;;;;;;3.00;2.38;;;;;;;;;;5028969;28;20403;-84
2022/08/13 12:38:27;;;;;;;2.30;2.10;;;;;;;;;;5011999;28;20068;-86
2022/08/13 12:40:53;;;;;;;3.20;2.40;;;;;;;;;;5028970;28;20413;-83
2022/08/13 12:43:19;;;;;;;3.45;2.60;;;;;;;;;;5042531;28;20037;-83
2022/08/13 12:45:45;;;;;;;2.85;2.58;;;;;;;;;;5036334;28;20061;-83
2022/08/13 12:48:18;;;;;;;4.30;2.53;;;;;;;;;;5029244;28;20045;-83
2022/08/13 12:50:46;;;;;;;2.60;2.40;;;;;;;;;;5044204;28;20042;-83
2022/08/13 12:53:12;;;;;;;4.35;2.63;;;;;;;;;;5030526;28;20087;-83
2022/08/13 12:55:39;;;;;;;3.58;2.47;;;;;;;;;;5034166;28;20053;-83
2022/08/13 12:58:13;;;;;;;4.65;2.53;;;;;;;;;;5032409;28;20443;-85
2022/08/13 13:00:39;;;;;;;5.32;2.30;;;;;;;;;;5029825;28;20131;-83
2022/08/13 13:03:05;;;;;;;2.95;2.28;;;;;;;;;;5046747;28;20072;-85
2022/08/13 13:05:32;;;;;;;2.65;2.22;;;;;;;;;;5027810;28;20045;-82
2022/08/13 13:07:58;;;;;;;3.42;2.60;;;;;;;;;;5031748;28;20045;-83
2022/08/13 13:10:27;;;;;;;4.47;2.60;;;;;;;;;;5030991;28;20091;-88
2022/08/13 13:12:53;;;;;;;4.10;2.60;;;;;;;;;;5032493;28;20092;-82
2022/08/13 13:15:19;;;;;;;2.95;2.35;;;;;;;;;;5043895;28;20115;-83
2022/08/13 13:17:48;;;;;;;3.63;2.60;;;;;;;;;;5023080;28;20053;-86
2022/08/13 13:20:14;;;;;;;4.18;2.50;;;;;;;;;;5026729;28;20057;-83
2022/08/13 13:22:40;;;;;;;2.40;2.20;;;;;;;;;;5031845;28;20120;-83
2022/08/13 13:25:06;;;;;;;3.90;2.45;;;;;;;;;;5040776;28;20036;-85
2022/08/13 13:27:35;;;;;;;4.72;2.42;;;;;;;;;;5044652;28;20092;-85
2022/08/13 13:30:02;;;;;;;3.58;2.67;;;;;;;;;;5032929;28;20117;-85
2022/08/13 13:32:28;;;;;;;4.30;2.50;;;;;;;;;;5032150;28;20041;-84
2022/08/13 13:34:55;;;;;;;2.90;2.50;;;;;;;;;;5032212;28;20041;-85
2022/08/13 13:37:21;;;;;;;4.68;2.50;;;;;;;;;;5013928;28;20193;-85
2022/08/13 13:39:47;;;;;;;3.00;2.65;;;;;;;;;;5031080;28;20052;-85
2022/08/13 13:42:14;;;;;;;3.10;2.30;;;;;;;;;;5032948;28;20421;-85
2022/08/13 13:44:40;;;;;;;4.18;2.58;;;;;;;;;;5036714;28;20049;-86
2022/08/13 13:47:08;;;;;;;3.00;2.70;;;;;;;;;;5038429;28;20048;-86
2022/08/13 13:49:37;;;;;;;2.53;2.33;;;;;;;;;;5033112;28;20045;-85
2022/08/13 13:52:04;;;;;;;4.63;2.67;;;;;;;;;;5030659;28;20042;-85
2022/08/13 13:54:30;;;;;;;2.55;2.25;;;;;;;;;;5033732;28;20041;-85
2022/08/13 13:56:56;;;;;;;3.97;2.80;;;;;;;;;;5045726;28;20516;-85
2022/08/13 13:59:22;;;;;;;2.60;2.40;;;;;;;;;;5032755;28;20045;-85
2022/08/13 14:01:48;;;;;;;2.88;2.30;;;;;;;;;;5031090;28;20052;-85
2022/08/13 14:04:16;;;;;;;2.53;2.33;;;;;;;;;;5028958;28;20598;-86
2022/08/13 14:06:44;;;;;;;5.05;2.67;;;;;;;;;;5029994;28;20138;-85
2022/08/13 14:09:10;;;;;;;2.70;2.50;;;;;;;;;;5030002;28;20084;-85
2022/08/13 14:11:36;;;;;;;4.35;2.70;;;;;;;;;;5032149;28;20414;-85
2022/08/13 14:14:02;;;;;;;3.95;2.60;;;;;;;;;;5030840;28;20046;-84
2022/08/13 14:16:28;;;;;;;3.17;2.40;;;;;;;;;;5033555;28;20507;-85
2022/08/13 14:18:55;;;;;;;2.92;2.40;;;;;;;;;;5031542;28;20043;-83
2022/08/13 14:21:22;;;;;;;2.40;2.20;;;;;;;;;;5030831;28;20378;-86
2022/08/13 14:23:49;;;;;;;3.35;2.58;;;;;;;;;;5029289;28;20056;-90
2022/08/13 14:26:15;;;;;;;2.92;2.47;;;;;;;;;;5031783;28;20137;-86
2022/08/13 14:28:42;;;;;;;3.35;2.53;;;;;;;;;;5024917;28;20128;-86
2022/08/13 14:31:10;;;;;;;2.97;2.40;;;;;;;;;;5012142;28;20050;-84
2022/08/13 14:33:39;;;;;;;2.55;2.35;;;;;;;;;;5025065;28;20077;-84
2022/08/13 14:36:05;;;;;;;3.13;2.50;;;;;;;;;;5029037;28;20048;-84
2022/08/13 14:38:31;;;;;;;3.33;2.50;;;;;;;;;;5052327;28;20077;-84
2022/08/13 14:41:01;;;;;;;2.97;2.55;;;;;;;;;;5048258;28;20056;-87
2022/08/13 14:43:28;;;;;;;5.90;2.92;;;;;;;;;;5028072;28;20085;-85
2022/08/13 14:45:55;;;;;;;3.63;2.40;;;;;;;;;;5029940;28;20049;-85
2022/08/13 14:48:23;;;;;;;3.83;2.65;;;;;;;;;;5026626;28;20088;-86
2022/08/13 14:50:49;;;;;;;2.60;2.40;;;;;;;;;;5022155;28;20132;-86
2022/08/13 14:53:15;;;;;;;3.40;2.63;;;;;;;;;;5038866;28;20056;-86
2022/08/13 14:55:44;;;;;;;2.80;2.60;;;;;;;;;;5032098;28;20452;-86
2022/08/13 14:58:10;;;;;;;3.60;2.40;;;;;;;;;;5022625;28;20049;-85
2022/08/13 15:00:40;;;;;;;4.80;2.60;;;;;;;;;;5024491;28;20095;-86
2022/08/13 15:03:08;;;;;;;6.30;2.60;;;;;;;;;;5021128;28;20049;-85
2022/08/13 15:05:35;;;;;;;4.93;2.67;;;;;;;;;;5022249;28;20189;-86